aviador You're here:

SBFL Decoded Metar

FLORIANOPOLIS in BRAZIL
Report Time2017-08-19 20:00:00
UTC Time2017-08-19 20:20:37
Flight Rules vfr VFR
Wind010° at 13 kt
W.Decomp.*RWY 03: 13.0 kt HW 0.2 kt LCW
RWY 32: 4.7 kt HW 12.1 kt RCW
W.Rank010° ranks 5
Current wind is above 010° avg. (8.5)
Visibility9999 m
Phenomena:N/A
Clouds:Few 030 Hf
Expected CloudBase > 2,000 ft AGL from Temp-Dew spread
CeilingNone
Temp22°C (ISA +7)
Dew Point17°C (73% RH)
AAT19.7°C
QNH1009 hPa
Density Alt1,227 ft
Elevation16 ft
Report Wrong Elevation
Raw Report
SBFL 192000Z 01013KT 9999 FEW030 22/17 Q1009=

Extra information for SBFL:More info

Metar Taf Metar & Taf Last 4 Metars F.Rules Stats Wind Profile Meteogram Temp Stats Airport Information Weather charts Add Link Nearby VenuesMetar ALERT Operation Metar Decoded Social comments